createdAt,value
2019-02-11T00:01:08.261Z,79.91
2019-02-11T00:03:36.821Z,80.42
2019-02-11T00:06:05.429Z,78.26
2019-02-11T00:08:33.979Z,76.98
2019-02-11T00:11:02.569Z,76.91
2019-02-11T00:13:31.105Z,77.28
2019-02-11T00:15:59.697Z,78.63
2019-02-11T00:18:28.314Z,77.11
2019-02-11T00:20:56.892Z,77.16
2019-02-11T00:23:25.383Z,77.60
2019-02-11T00:25:53.970Z,77.55
2019-02-11T00:28:22.530Z,77.84
2019-02-11T00:30:51.190Z,77.72
2019-02-11T00:33:19.807Z,78.83
2019-02-11T00:35:48.411Z,78.17
2019-02-11T00:38:16.992Z,80.75
2019-02-11T00:40:45.548Z,78.18
2019-02-11T00:43:19.105Z,75.94
2019-02-11T00:45:44.401Z,76.67
2019-02-11T00:48:12.980Z,76.72
2019-02-11T00:50:41.534Z,78.31
2019-02-11T00:53:10.070Z,77.99
2019-02-11T00:55:38.662Z,76.98
2019-02-11T00:58:07.299Z,77.90
2019-02-11T01:00:35.936Z,79.24
2019-02-11T01:03:04.563Z,78.54
2019-02-11T01:05:33.072Z,78.11
2019-02-11T01:08:01.729Z,77.69
2019-02-11T01:10:30.246Z,78.20
2019-02-11T01:12:59.755Z,79.80
2019-02-11T01:15:28.376Z,78.65
2019-02-11T01:17:56.894Z,77.33
2019-02-11T01:20:25.490Z,77.55
2019-02-11T01:22:53.984Z,76.76
2019-02-11T01:25:22.564Z,77.05
2019-02-11T01:27:50.999Z,77.04
2019-02-11T01:30:19.469Z,76.73
2019-02-11T01:32:48.033Z,77.74
2019-02-11T01:35:16.687Z,78.55
2019-02-11T01:37:45.315Z,77.14
2019-02-11T01:40:13.979Z,78.29
2019-02-11T01:42:42.466Z,78.27
2019-02-11T01:45:12.304Z,77.63
2019-02-11T01:47:40.960Z,78.61
2019-02-11T01:50:11.784Z,81.55
2019-02-11T01:52:40.368Z,77.57
2019-02-11T01:55:08.992Z,76.80
2019-02-11T01:57:37.599Z,76.68
2019-02-11T02:00:09.546Z,77.44
2019-02-11T02:02:38.064Z,77.91
2019-02-11T02:05:08.087Z,77.36
2019-02-11T02:07:36.660Z,77.66
2019-02-11T02:10:08.300Z,77.85
2019-02-11T02:12:36.943Z,77.44
2019-02-11T02:15:07.521Z,77.20
2019-02-11T02:17:36.871Z,77.49
2019-02-11T02:20:08.656Z,77.71
2019-02-11T02:22:37.209Z,78.03
2019-02-11T02:25:07.595Z,82.10
2019-02-11T02:27:36.154Z,78.96
2019-02-11T02:30:07.066Z,76.66
2019-02-11T02:32:35.570Z,76.11
2019-02-11T02:35:05.393Z,76.84
2019-02-11T02:37:33.902Z,76.29
2019-02-11T02:40:02.584Z,77.40
2019-02-11T02:42:31.555Z,76.58
2019-02-11T02:45:00.107Z,76.73
2019-02-11T02:47:28.958Z,77.49
2019-02-11T02:49:57.418Z,77.34
2019-02-11T02:52:26.023Z,76.77
2019-02-11T02:54:54.519Z,76.77
2019-02-11T02:57:23.149Z,78.84
2019-02-11T02:59:51.637Z,78.84
2019-02-11T03:02:20.280Z,81.14
2019-02-11T03:04:48.849Z,76.98
2019-02-11T03:07:17.360Z,76.32
2019-02-11T03:09:46.670Z,76.37
2019-02-11T03:12:15.194Z,76.40
2019-02-11T03:14:43.628Z,77.49
2019-02-11T03:17:12.229Z,76.63
2019-02-11T03:19:41.714Z,76.46
2019-02-11T03:22:10.175Z,76.78
2019-02-11T03:24:38.720Z,76.42
2019-02-11T03:27:07.301Z,76.71
2019-02-11T03:29:35.849Z,77.13
2019-02-11T03:32:04.351Z,77.15
2019-02-11T03:34:32.903Z,77.33
2019-02-11T03:37:01.372Z,79.86
2019-02-11T03:39:29.805Z,77.20
2019-02-11T03:41:58.506Z,76.26
2019-02-11T03:44:27.084Z,76.26
2019-02-11T03:46:55.715Z,75.35
2019-02-11T03:49:24.289Z,75.41
2019-02-11T03:51:52.869Z,75.39
2019-02-11T03:54:21.495Z,76.29
2019-02-11T03:56:50.071Z,76.10
2019-02-11T03:59:18.608Z,75.63
2019-02-11T04:01:47.190Z,76.16
2019-02-11T04:04:16.289Z,76.07
2019-02-11T04:06:44.795Z,75.77
2019-02-11T04:09:13.503Z,76.58
2019-02-11T04:11:42.090Z,77.99
2019-02-11T04:14:10.566Z,79.09
2019-02-11T04:16:39.065Z,75.16
2019-02-11T04:19:07.592Z,75.03
2019-02-11T04:21:36.165Z,74.31
2019-02-11T04:24:04.830Z,74.87
2019-02-11T04:26:33.472Z,75.61
2019-02-11T04:29:02.024Z,76.10
2019-02-11T04:31:30.668Z,75.89
2019-02-11T04:33:59.220Z,76.55
2019-02-11T04:36:27.840Z,76.23
2019-02-11T04:38:56.472Z,76.37
2019-02-11T04:41:25.013Z,76.06
2019-02-11T04:43:53.448Z,75.33
2019-02-11T04:46:22.062Z,75.03
2019-02-11T04:48:50.530Z,78.78
2019-02-11T04:51:19.051Z,75.97
2019-02-11T04:53:47.647Z,74.38
2019-02-11T04:56:16.072Z,73.33
2019-02-11T04:58:44.543Z,73.89
2019-02-11T05:01:13.125Z,75.00
2019-02-11T05:03:41.689Z,74.95
2019-02-11T05:06:10.221Z,75.34
2019-02-11T05:08:38.771Z,76.01
2019-02-11T05:11:07.283Z,76.00
2019-02-11T05:13:35.778Z,76.12
2019-02-11T05:16:04.812Z,76.49
2019-02-11T05:18:33.314Z,75.68
2019-02-11T05:21:01.865Z,76.09
2019-02-11T05:23:30.558Z,77.24
2019-02-11T05:25:58.996Z,79.21
2019-02-11T05:28:28.408Z,75.46
2019-02-11T05:30:56.949Z,74.81
2019-02-11T05:33:25.504Z,75.21
2019-02-11T05:35:54.018Z,75.90
2019-02-11T05:38:22.491Z,76.55
2019-02-11T05:40:51.517Z,77.54
2019-02-11T05:43:20.107Z,77.26
2019-02-11T05:45:48.656Z,75.85
2019-02-11T05:48:17.309Z,77.04
2019-02-11T05:50:45.935Z,77.76
2019-02-11T05:53:14.387Z,77.44
2019-02-11T05:55:43.022Z,76.91
2019-02-11T05:58:11.622Z,77.12
2019-02-11T06:00:40.101Z,79.97
2019-02-11T06:03:09.615Z,78.80
2019-02-11T06:05:38.313Z,75.74
2019-02-11T06:08:06.864Z,75.98
2019-02-11T06:10:35.360Z,75.52
2019-02-11T06:13:03.935Z,75.70
2019-02-11T06:15:32.527Z,77.36
2019-02-11T06:18:01.169Z,76.64
2019-02-11T06:20:29.860Z,76.67
2019-02-11T06:22:58.339Z,76.90
2019-02-11T06:25:27.088Z,75.52
2019-02-11T06:27:55.690Z,76.24
2019-02-11T06:30:24.237Z,76.21
2019-02-11T06:32:52.859Z,76.50
2019-02-11T06:35:21.447Z,76.83
2019-02-11T06:37:49.979Z,80.24
2019-02-11T06:40:18.570Z,75.86
2019-02-11T06:42:47.158Z,75.12
2019-02-11T06:45:15.662Z,75.10
2019-02-11T06:47:44.222Z,75.18
2019-02-11T06:50:14.645Z,75.71
2019-02-11T06:52:43.305Z,76.33
2019-02-11T06:55:12.645Z,74.92
2019-02-11T06:57:41.145Z,75.34
2019-02-11T07:00:12.632Z,74.99
2019-02-11T07:02:41.430Z,74.78
2019-02-11T07:05:10.052Z,75.07
2019-02-11T07:07:38.622Z,75.76
2019-02-11T07:10:11.864Z,76.24
2019-02-11T07:12:40.449Z,79.96
2019-02-11T07:15:11.782Z,77.93
2019-02-11T07:17:40.360Z,75.08
2019-02-11T07:20:10.357Z,74.88
2019-02-11T07:22:38.896Z,75.60
2019-02-11T07:25:09.083Z,75.41
2019-02-11T07:27:37.708Z,76.31
2019-02-11T07:30:09.247Z,76.27
2019-02-11T07:32:37.824Z,74.92
2019-02-11T07:35:06.296Z,75.54
2019-02-11T07:37:34.924Z,75.10
2019-02-11T07:40:04.453Z,75.88
2019-02-11T07:42:37.426Z,75.47
2019-02-11T07:45:10.616Z,76.01
2019-02-11T07:47:39.237Z,76.08
2019-02-11T07:50:07.915Z,75.87
2019-02-11T07:52:36.499Z,74.02
2019-02-11T07:55:06.248Z,74.05
2019-02-11T07:57:34.891Z,74.18
2019-02-11T08:00:03.742Z,74.43
2019-02-11T08:02:32.335Z,74.38
2019-02-11T08:05:00.923Z,74.38
2019-02-11T08:07:29.623Z,74.80
2019-02-11T08:09:58.231Z,74.86
2019-02-11T08:12:26.787Z,74.09
2019-02-11T08:14:55.371Z,74.65
2019-02-11T08:17:23.987Z,73.88
2019-02-11T08:19:52.612Z,74.50
2019-02-11T08:22:21.233Z,74.89
2019-02-11T08:24:49.887Z,82.24
2019-02-11T08:27:18.513Z,75.49
2019-02-11T08:29:47.069Z,73.81
2019-02-11T08:32:15.763Z,72.92
2019-02-11T08:34:44.340Z,72.94
2019-02-11T08:37:12.924Z,72.64
2019-02-11T08:39:41.550Z,74.35
2019-02-11T08:42:10.115Z,74.33
2019-02-11T08:44:38.797Z,73.73
2019-02-11T08:47:07.468Z,72.79
2019-02-11T08:49:36.105Z,72.97
2019-02-11T08:52:04.699Z,72.25
2019-02-11T08:54:33.309Z,72.58
2019-02-11T08:57:01.863Z,73.29
2019-02-11T08:59:30.539Z,74.05
2019-02-11T09:01:59.353Z,73.70
2019-02-11T09:04:30.704Z,72.39
2019-02-11T09:06:59.318Z,71.11
2019-02-11T09:09:27.857Z,70.32
2019-02-11T09:11:56.475Z,70.98
2019-02-11T09:14:25.054Z,71.57
2019-02-11T09:16:53.678Z,70.11
2019-02-11T09:19:22.302Z,69.88
2019-02-11T09:21:50.801Z,71.46
2019-02-11T09:24:19.402Z,71.59
2019-02-11T09:26:47.976Z,72.11
2019-02-11T09:29:16.570Z,72.22
2019-02-11T09:31:45.196Z,72.23
2019-02-11T09:34:13.738Z,72.03
2019-02-11T09:36:42.254Z,74.69
2019-02-11T09:39:10.961Z,70.93
2019-02-11T09:41:39.625Z,70.70
2019-02-11T09:44:08.257Z,70.43
2019-02-11T09:46:36.834Z,70.47
2019-02-11T09:49:05.471Z,70.53
2019-02-11T09:51:36.173Z,69.89
2019-02-11T09:54:05.481Z,69.52
2019-02-11T09:56:34.115Z,68.94
2019-02-11T09:59:02.763Z,68.99
2019-02-11T10:01:31.444Z,70.29
2019-02-11T10:03:59.920Z,70.95
2019-02-11T10:06:28.516Z,70.32
2019-02-11T10:08:57.166Z,70.52
2019-02-11T10:11:25.714Z,72.62
2019-02-11T10:13:54.268Z,71.16
2019-02-11T10:16:22.853Z,69.11
2019-02-11T10:18:51.517Z,68.54
2019-02-11T10:21:20.098Z,68.37
2019-02-11T10:23:48.654Z,68.29
2019-02-11T10:26:17.262Z,69.92
2019-02-11T10:28:47.908Z,70.43
2019-02-11T10:31:16.537Z,70.51
2019-02-11T10:33:45.147Z,71.75
2019-02-11T10:36:14.172Z,71.36
2019-02-11T10:38:42.693Z,72.59
2019-02-11T10:41:11.323Z,73.86
2019-02-11T10:43:40.028Z,73.94
2019-02-11T10:46:08.665Z,75.12
2019-02-11T10:48:37.292Z,76.51
2019-02-11T10:51:05.813Z,73.92
2019-02-11T10:53:34.384Z,72.36
2019-02-11T10:56:03.013Z,72.25
2019-02-11T10:58:31.648Z,73.19
2019-02-11T11:01:00.450Z,74.79
2019-02-11T11:03:29.029Z,74.05
2019-02-11T11:05:57.666Z,73.00
2019-02-11T11:08:26.243Z,74.30
2019-02-11T11:10:54.882Z,73.06
2019-02-11T11:13:23.464Z,73.32
2019-02-11T11:15:52.048Z,73.32
2019-02-11T11:18:20.707Z,73.10
2019-02-11T11:20:49.362Z,73.64
2019-02-11T11:23:18.002Z,77.45
2019-02-11T11:25:47.771Z,72.53
2019-02-11T11:28:16.387Z,71.92
2019-02-11T11:30:45.100Z,72.28
2019-02-11T11:33:13.549Z,71.85
2019-02-11T11:35:42.087Z,72.56
2019-02-11T11:38:10.707Z,72.06
2019-02-11T11:40:39.361Z,72.73
2019-02-11T11:43:08.103Z,72.39
2019-02-11T11:45:37.584Z,71.92
2019-02-11T11:48:07.631Z,71.53
2019-02-11T11:50:36.221Z,71.83
2019-02-11T11:53:04.947Z,71.99
2019-02-11T11:55:33.535Z,72.70
2019-02-11T11:58:02.097Z,72.78
2019-02-11T12:00:33.238Z,70.95
2019-02-11T12:03:04.804Z,68.95
2019-02-11T12:05:32.228Z,68.22
2019-02-11T12:08:00.767Z,68.73
2019-02-11T12:10:29.347Z,68.81
2019-02-11T12:12:57.913Z,68.28
2019-02-11T12:15:27.494Z,67.47
2019-02-11T12:17:56.159Z,67.41
2019-02-11T12:20:24.803Z,67.65
2019-02-11T12:22:53.411Z,68.21
2019-02-11T12:25:21.928Z,67.13
2019-02-11T12:27:50.571Z,68.30
2019-02-11T12:30:24.419Z,68.15
2019-02-11T12:32:54.995Z,69.39
2019-02-11T12:35:23.433Z,68.34
2019-02-11T12:37:51.996Z,68.54
2019-02-11T12:40:20.625Z,68.37
2019-02-11T12:42:52.838Z,68.18
2019-02-11T12:45:24.630Z,68.89
2019-02-11T12:47:53.350Z,68.25
2019-02-11T12:50:21.927Z,70.18
2019-02-11T12:52:50.591Z,70.86
2019-02-11T12:55:19.718Z,71.76
2019-02-11T12:57:48.340Z,71.69
2019-02-11T13:00:18.993Z,72.27
2019-02-11T13:02:47.833Z,71.44
2019-02-11T13:05:16.491Z,71.63
2019-02-11T13:07:45.108Z,71.43
2019-02-11T13:10:17.208Z,72.40
2019-02-11T13:12:45.911Z,70.15
2019-02-11T13:15:41.712Z,69.29
2019-02-11T13:17:49.138Z,69.13
2019-02-11T13:20:20.887Z,68.66
2019-02-11T13:22:49.614Z,69.47
2019-02-11T13:25:18.914Z,70.70
2019-02-11T13:27:47.683Z,71.36
2019-02-11T13:30:25.618Z,71.52
2019-02-11T13:32:54.288Z,70.88
2019-02-11T13:35:22.806Z,70.36
2019-02-11T13:37:54.754Z,71.14
2019-02-11T13:40:21.863Z,71.29
2019-02-11T13:42:50.401Z,71.97
2019-02-11T13:45:22.279Z,75.20
2019-02-11T13:47:57.129Z,71.53
2019-02-11T13:50:24.945Z,71.53
2019-02-11T13:52:53.756Z,71.78
2019-02-11T13:55:22.777Z,72.42
2019-02-11T13:57:51.744Z,70.82
2019-02-11T14:00:37.055Z,71.70
2019-02-11T14:03:07.057Z,71.42
2019-02-11T14:05:35.753Z,70.17
2019-02-11T14:08:06.089Z,70.00
2019-02-11T14:10:34.766Z,68.20
2019-02-11T14:13:03.497Z,69.28
2019-02-11T14:15:32.180Z,69.79
2019-02-11T14:18:11.529Z,69.98
2019-02-11T14:20:36.683Z,71.21
2019-02-11T14:23:05.551Z,68.11
2019-02-11T14:25:44.184Z,67.92
2019-02-11T14:28:04.987Z,68.89
2019-02-11T14:30:33.695Z,67.41
2019-02-11T14:33:02.348Z,68.00
2019-02-11T14:35:30.955Z,67.08
2019-02-11T14:38:02.222Z,68.30
2019-02-11T14:40:30.001Z,68.60
2019-02-11T14:42:58.620Z,68.90
2019-02-11T14:45:27.203Z,68.29
2019-02-11T14:47:55.900Z,67.79
2019-02-11T14:50:24.518Z,68.72
2019-02-11T14:52:53.129Z,68.55
2019-02-11T14:55:21.743Z,70.65
2019-02-11T14:57:50.253Z,69.32
2019-02-11T15:00:20.862Z,65.51
2019-02-11T15:02:49.810Z,66.42
2019-02-11T15:05:19.229Z,65.73
2019-02-11T15:07:47.950Z,64.01
2019-02-11T15:10:16.897Z,65.10
2019-02-11T15:12:45.540Z,63.87
2019-02-11T15:15:14.589Z,63.82
2019-02-11T15:17:44.270Z,63.82
2019-02-11T15:20:14.581Z,61.76
2019-02-11T15:22:43.192Z,61.99
2019-02-11T15:25:14.315Z,61.17
2019-02-11T15:27:42.960Z,62.53
2019-02-11T15:30:17.012Z,63.85
2019-02-11T15:32:45.609Z,64.06
2019-02-11T15:35:14.260Z,60.42
2019-02-11T15:37:42.886Z,60.32
2019-02-11T15:40:13.920Z,60.72
2019-02-11T15:42:42.558Z,62.14
2019-02-11T15:45:13.168Z,60.67
2019-02-11T15:47:42.626Z,61.51
2019-02-11T15:50:15.826Z,60.92
2019-02-11T15:52:45.400Z,60.97
2019-02-11T15:55:16.100Z,60.33
2019-02-11T15:57:44.751Z,61.82
2019-02-11T16:00:18.244Z,61.00
2019-02-11T16:02:46.846Z,61.92
2019-02-11T16:05:16.619Z,61.87
2019-02-11T16:07:45.527Z,62.01
2019-02-11T16:10:16.551Z,60.55
2019-02-11T16:12:45.198Z,61.42
2019-02-11T16:15:13.894Z,60.58
2019-02-11T16:17:42.543Z,60.45
2019-02-11T16:20:14.557Z,60.26
2019-02-11T16:22:43.497Z,60.77
2019-02-11T16:25:15.683Z,61.10
2019-02-11T16:27:44.084Z,61.08
2019-02-11T16:30:17.708Z,61.24
2019-02-11T16:32:46.351Z,61.48
2019-02-11T16:35:16.537Z,61.58
2019-02-11T16:37:45.126Z,60.71
2019-02-11T16:40:16.311Z,61.96
2019-02-11T16:42:44.860Z,62.08
2019-02-11T16:45:13.483Z,59.81
2019-02-11T16:47:42.164Z,61.26
2019-02-11T16:50:12.370Z,60.65
2019-02-11T16:52:40.968Z,60.02
2019-02-11T16:55:13.011Z,61.24
2019-02-11T16:57:41.648Z,60.83
2019-02-11T17:00:13.099Z,60.90
2019-02-11T17:02:41.640Z,61.35
2019-02-11T17:05:11.482Z,61.59
2019-02-11T17:07:41.853Z,61.80
2019-02-11T17:10:12.575Z,62.53
2019-02-11T17:12:41.183Z,63.65
2019-02-11T17:15:17.715Z,65.48
2019-02-11T17:17:46.321Z,66.33
2019-02-11T17:20:16.014Z,66.97
2019-02-11T17:22:44.956Z,65.62
2019-02-11T17:25:14.502Z,65.48
2019-02-11T17:27:43.105Z,64.65
2019-02-11T17:30:23.312Z,64.25
2019-02-11T17:32:52.012Z,63.96
2019-02-11T17:35:20.709Z,64.49
2019-02-11T17:37:49.321Z,64.29
2019-02-11T17:40:17.816Z,64.91
2019-02-11T17:42:46.459Z,64.29
2019-02-11T17:45:17.889Z,64.32
2019-02-11T17:47:46.964Z,64.27
2019-02-11T17:50:15.538Z,65.01
2019-02-11T17:52:44.267Z,67.74
2019-02-11T17:55:15.854Z,65.57
2019-02-11T17:57:44.481Z,65.58
2019-02-11T18:00:17.633Z,66.31
2019-02-11T18:02:46.272Z,65.40
2019-02-11T18:05:14.858Z,65.52
2019-02-11T18:07:43.482Z,65.57
2019-02-11T18:10:12.052Z,66.23
2019-02-11T18:12:40.699Z,67.29
2019-02-11T18:15:10.554Z,66.63
2019-02-11T18:17:39.183Z,66.45
2019-02-11T18:20:09.440Z,66.99
2019-02-11T18:22:38.078Z,66.24
2019-02-11T18:25:08.581Z,66.54
2019-02-11T18:27:37.257Z,71.55
2019-02-11T18:30:13.047Z,66.77
2019-02-11T18:32:41.615Z,65.55
2019-02-11T18:35:15.480Z,66.20
2019-02-11T18:37:44.159Z,66.20
2019-02-11T18:40:16.385Z,65.96
2019-02-11T18:42:45.009Z,67.19
2019-02-11T18:45:15.778Z,67.08
2019-02-11T18:47:44.461Z,67.42
2019-02-11T18:50:14.709Z,67.32
2019-02-11T18:52:43.768Z,67.34
2019-02-11T18:55:21.876Z,67.33
2019-02-11T18:57:50.333Z,66.74
2019-02-11T19:00:19.727Z,67.57
2019-02-11T19:02:48.805Z,70.00
2019-02-11T19:05:17.931Z,67.74
2019-02-11T19:07:46.719Z,66.50
2019-02-11T19:10:16.443Z,65.83
2019-02-11T19:12:45.027Z,65.91
2019-02-11T19:15:15.450Z,66.89
2019-02-11T19:17:44.039Z,68.87
2019-02-11T19:20:14.430Z,69.33
2019-02-11T19:22:43.113Z,69.58
2019-02-11T19:25:12.724Z,70.53
2019-02-11T19:27:41.456Z,69.89
2019-02-11T19:30:12.830Z,70.10
2019-02-11T19:32:41.523Z,70.21
2019-02-11T19:35:10.118Z,69.22
2019-02-11T19:37:38.695Z,71.36
2019-02-11T19:40:15.938Z,71.79
2019-02-11T19:42:44.625Z,68.27
2019-02-11T19:45:16.231Z,68.38
2019-02-11T19:47:47.543Z,68.97
2019-02-11T19:50:17.238Z,70.93
2019-02-11T19:52:46.079Z,70.80
2019-02-11T19:55:15.575Z,71.00
2019-02-11T19:57:44.136Z,70.30
2019-02-11T20:00:18.424Z,68.85
2019-02-11T20:02:47.348Z,69.00
2019-02-11T20:05:15.948Z,68.98
2019-02-11T20:07:44.543Z,68.68
2019-02-11T20:10:19.841Z,68.46
2019-02-11T20:12:48.502Z,68.02
2019-02-11T20:15:19.444Z,70.59
2019-02-11T20:17:47.996Z,67.14
2019-02-11T20:20:21.512Z,66.36
2019-02-11T20:22:50.128Z,67.24
2019-02-11T20:25:18.822Z,66.83
2019-02-11T20:27:47.399Z,68.56
2019-02-11T20:30:27.341Z,68.49
2019-02-11T20:32:55.946Z,69.31
2019-02-11T20:35:24.546Z,68.65
2019-02-11T20:37:53.265Z,67.96
2019-02-11T20:40:30.226Z,68.63
2019-02-11T20:42:58.858Z,68.16
2019-02-11T20:45:28.839Z,67.96
2019-02-11T20:47:57.466Z,68.16
2019-02-11T20:50:26.036Z,71.64
2019-02-11T20:52:54.627Z,68.30
2019-02-11T20:55:23.245Z,66.40
2019-02-11T20:57:54.648Z,66.55
2019-02-11T21:00:25.009Z,67.17
2019-02-11T21:02:53.665Z,68.52
2019-02-11T21:05:22.909Z,68.33
2019-02-11T21:07:51.474Z,69.44
2019-02-11T21:10:24.414Z,68.81
2019-02-11T21:12:53.044Z,68.17
2019-02-11T21:15:21.675Z,68.48
2019-02-11T21:17:52.787Z,68.64
2019-02-11T21:20:30.193Z,67.89
2019-02-11T21:22:58.758Z,68.19
2019-02-11T21:25:27.289Z,75.37
2019-02-11T21:27:55.915Z,69.08
2019-02-11T21:30:24.513Z,68.05
2019-02-11T21:32:53.214Z,67.98
2019-02-11T21:35:21.875Z,68.59
2019-02-11T21:37:52.331Z,67.58
2019-02-11T21:40:20.798Z,68.96
2019-02-11T21:42:49.507Z,69.43
2019-02-11T21:45:18.328Z,69.14
2019-02-11T21:47:48.440Z,69.18
2019-02-11T21:50:26.392Z,69.42
2019-02-11T21:52:49.501Z,69.02
2019-02-11T21:55:19.761Z,68.30
2019-02-11T21:57:50.120Z,68.10
2019-02-11T22:00:20.770Z,70.17
2019-02-11T22:02:49.474Z,69.30
2019-02-11T22:05:18.016Z,66.50
2019-02-11T22:07:47.438Z,67.27
2019-02-11T22:10:22.567Z,67.43
2019-02-11T22:12:51.135Z,69.41
2019-02-11T22:15:19.750Z,69.73
2019-02-11T22:17:48.429Z,70.20
2019-02-11T22:20:19.211Z,70.41
2019-02-11T22:22:47.885Z,69.72
2019-02-11T22:25:16.516Z,67.99
2019-02-11T22:27:45.092Z,68.09
2019-02-11T22:30:15.715Z,68.86
2019-02-11T22:32:44.306Z,68.53
2019-02-11T22:35:12.908Z,68.82
2019-02-11T22:37:41.529Z,71.54
2019-02-11T22:40:12.328Z,68.19
2019-02-11T22:42:40.960Z,67.81
2019-02-11T22:45:14.758Z,67.32
2019-02-11T22:47:43.354Z,68.15
2019-02-11T22:50:13.438Z,67.86
2019-02-11T22:52:42.164Z,68.67
2019-02-11T22:55:12.619Z,69.80
2019-02-11T22:57:41.300Z,69.62
2019-02-11T23:00:42.051Z,68.64
2019-02-11T23:03:10.755Z,69.26
2019-02-11T23:05:39.347Z,68.31
2019-02-11T23:08:08.011Z,69.22
2019-02-11T23:10:36.636Z,70.65
2019-02-11T23:13:05.226Z,72.05
2019-02-11T23:15:33.856Z,69.43
2019-02-11T23:18:02.503Z,68.57
2019-02-11T23:20:31.064Z,69.70
2019-02-11T23:22:59.663Z,69.26
2019-02-11T23:25:28.249Z,69.40
2019-02-11T23:27:56.870Z,69.91
2019-02-11T23:30:25.447Z,70.05
2019-02-11T23:32:53.995Z,69.90
2019-02-11T23:35:22.706Z,70.36
2019-02-11T23:37:51.192Z,69.86
2019-02-11T23:40:19.875Z,71.31
2019-02-11T23:42:48.528Z,70.56
2019-02-11T23:45:17.129Z,71.49
2019-02-11T23:47:45.700Z,74.25
2019-02-11T23:50:14.315Z,70.19
2019-02-11T23:52:42.898Z,69.69
2019-02-11T23:55:11.514Z,69.33
2019-02-11T23:57:40.062Z,69.67
